createdAt,value
2019-03-12T00:01:14.242Z,4.40
2019-03-12T00:14:41.037Z,3.80
2019-03-12T00:17:08.789Z,4.20
2019-03-12T00:19:36.051Z,3.90
2019-03-12T00:22:06.174Z,3.50
2019-03-12T00:24:38.175Z,3.50
2019-03-12T00:27:08.661Z,3.80
2019-03-12T00:29:54.828Z,3.80
2019-03-12T00:32:37.232Z,4.00
2019-03-12T00:35:05.711Z,4.30
2019-03-12T00:37:39.079Z,4.50
2019-03-12T00:40:11.393Z,4.30
2019-03-12T00:42:40.652Z,4.50
2019-03-12T00:45:07.313Z,4.30
2019-03-12T00:47:37.540Z,4.50
2019-03-12T00:50:05.830Z,4.60
2019-03-12T00:52:35.769Z,4.70
2019-03-12T00:55:05.913Z,4.60
2019-03-12T00:57:31.812Z,4.80
2019-03-12T01:00:00.970Z,4.00
2019-03-12T01:02:46.786Z,3.60
2019-03-12T01:05:17.717Z,3.70
2019-03-12T01:07:44.870Z,4.20
2019-03-12T01:10:15.135Z,3.70
2019-03-12T01:12:42.277Z,3.50
2019-03-12T01:15:13.238Z,3.40
2019-03-12T01:17:41.191Z,3.50
2019-03-12T01:20:12.074Z,3.80
2019-03-12T01:22:39.118Z,4.00
2019-03-12T01:25:07.666Z,3.90
2019-03-12T01:27:36.393Z,3.90
2019-03-12T01:30:03.184Z,2.80
2019-03-12T01:32:31.456Z,3.00
2019-03-12T01:35:00.606Z,3.20
2019-03-12T01:37:27.695Z,2.80
2019-03-12T01:39:54.860Z,2.20
2019-03-12T01:42:21.640Z,2.50
2019-03-12T01:44:52.497Z,2.50
2019-03-12T01:47:24.077Z,2.50
2019-03-12T01:49:51.303Z,3.10
2019-03-12T01:52:18.331Z,2.70
2019-03-12T01:54:45.369Z,2.70
2019-03-12T01:57:18.500Z,2.90
2019-03-12T01:59:45.760Z,3.00
2019-03-12T02:02:12.940Z,2.90
2019-03-12T02:04:39.949Z,2.80
2019-03-12T02:07:07.901Z,3.00
2019-03-12T02:09:34.584Z,3.30
2019-03-12T02:12:02.129Z,3.00
2019-03-12T02:14:31.009Z,2.70
2019-03-12T02:16:58.706Z,3.00
2019-03-12T02:19:29.050Z,2.90
2019-03-12T02:21:56.335Z,3.10
2019-03-12T02:24:24.541Z,3.20
2019-03-12T02:26:52.395Z,3.10
2019-03-12T02:29:19.352Z,2.70
2019-03-12T02:31:47.686Z,2.80
2019-03-12T02:34:16.979Z,2.50
2019-03-12T02:36:46.345Z,2.30
2019-03-12T02:39:16.136Z,2.00
2019-03-12T02:41:43.489Z,2.20
2019-03-12T02:44:10.415Z,2.30
2019-03-12T02:57:29.341Z,2.20
2019-03-12T02:59:56.412Z,1.80
2019-03-12T03:02:27.952Z,2.10
2019-03-12T03:04:54.209Z,2.20
2019-03-12T03:07:24.822Z,2.70
2019-03-12T03:09:51.829Z,2.50
2019-03-12T03:12:19.008Z,2.20
2019-03-12T03:14:47.855Z,2.30
2019-03-12T03:17:15.072Z,2.50
2019-03-12T03:19:45.876Z,2.30
2019-03-12T03:22:13.707Z,2.30
2019-03-12T03:24:43.711Z,2.00
2019-03-12T03:27:15.058Z,2.00
2019-03-12T03:29:45.612Z,1.70
2019-03-12T03:32:13.419Z,1.90
2019-03-12T03:37:30.512Z,1.20
2019-03-12T03:39:57.017Z,1.30
2019-03-12T03:42:24.621Z,1.10
2019-03-12T03:44:53.309Z,1.30
2019-03-12T03:47:20.803Z,1.10
2019-03-12T03:49:50.483Z,1.10
2019-03-12T03:52:28.470Z,1.30
2019-03-12T03:54:57.601Z,1.90
2019-03-12T03:57:37.674Z,2.00
2019-03-12T04:00:04.636Z,1.90
2019-03-12T04:02:34.218Z,1.20
2019-03-12T04:05:01.560Z,1.60
2019-03-12T04:07:29.299Z,1.90
2019-03-12T04:09:56.618Z,1.50
2019-03-12T04:12:24.383Z,1.60
2019-03-12T04:14:52.303Z,1.50
2019-03-12T04:17:19.807Z,1.60
2019-03-12T04:19:49.722Z,1.60
2019-03-12T04:22:16.889Z,2.10
2019-03-12T04:24:44.239Z,2.10
2019-03-12T04:27:14.566Z,2.30
2019-03-12T04:29:42.952Z,1.80
2019-03-12T04:32:10.136Z,2.00
2019-03-12T04:34:39.340Z,1.70
2019-03-12T04:37:13.982Z,1.70
2019-03-12T04:39:42.353Z,1.90
2019-03-12T04:42:10.837Z,1.50
2019-03-12T13:48:18.038Z,14.30
2019-03-12T13:50:50.991Z,14.00
2019-03-12T14:09:53.453Z,13.70
2019-03-12T14:29:03.356Z,14.00
2019-03-12T14:31:33.051Z,13.10
2019-03-12T15:06:04.419Z,13.60
2019-03-12T15:08:35.439Z,12.90
2019-03-12T15:11:17.234Z,13.20
2019-03-12T15:18:45.921Z,13.60
2019-03-12T15:21:16.321Z,13.30
2019-03-12T15:53:02.117Z,12.60
2019-03-12T15:55:48.721Z,13.00
2019-03-12T15:58:14.936Z,13.20
2019-03-12T16:01:02.581Z,12.40
2019-03-12T16:03:43.350Z,12.50
2019-03-12T16:06:13.035Z,12.30
2019-03-12T16:08:48.875Z,12.30
2019-03-12T16:11:16.870Z,12.00
2019-03-12T16:13:52.808Z,12.40
2019-03-12T16:24:16.473Z,12.00
2019-03-12T16:29:32.834Z,12.20
2019-03-12T16:31:59.619Z,12.30
2019-03-12T16:34:26.486Z,12.40
2019-03-12T16:47:54.570Z,11.10
2019-03-12T16:58:22.061Z,11.20
2019-03-12T17:00:54.931Z,11.00
2019-03-12T17:03:28.398Z,10.40
2019-03-12T17:06:01.451Z,10.60
2019-03-12T17:08:38.257Z,10.40
2019-03-12T17:11:11.359Z,10.10
2019-03-12T17:13:41.064Z,9.90
2019-03-12T17:16:07.972Z,9.50
2019-03-12T17:18:39.236Z,9.30
2019-03-12T17:21:03.595Z,8.90
2019-03-12T17:39:46.171Z,8.90
2019-03-12T17:42:14.228Z,9.00
2019-03-12T17:44:40.967Z,9.00
2019-03-12T18:00:22.315Z,8.10
2019-03-12T18:02:52.391Z,8.00
2019-03-12T18:05:20.225Z,8.30
2019-03-12T18:07:48.887Z,8.00
2019-03-12T18:10:21.720Z,7.80
2019-03-12T18:13:05.891Z,7.80
2019-03-12T18:15:35.599Z,8.10
2019-03-12T18:18:11.505Z,8.20
2019-03-12T18:21:14.983Z,8.00
2019-03-12T18:40:05.738Z,7.10
2019-03-12T18:42:33.719Z,6.10
2019-03-12T18:45:06.355Z,6.40
2019-03-12T18:47:33.364Z,6.40
2019-03-12T18:50:00.993Z,6.10
2019-03-12T18:52:28.136Z,6.50
2019-03-12T18:54:58.141Z,6.40
2019-03-12T19:03:22.440Z,7.00
2019-03-12T19:05:57.089Z,6.80
2019-03-12T19:08:27.663Z,6.00
2019-03-12T19:13:41.936Z,5.90
2019-03-12T19:37:58.719Z,5.80
